Time;durP1;ratioP1;P1;durP2;ratioP2;P2;SDS_P1;SDS_P2;PMS_P1;PMS_P2;Temp;Humidity;BMP_temperature;BMP_pressure;BME280_temperature;BME280_humidity;BME280_pressure;Samples;Min_cycle;Max_cycle;Signal;HPM_P1;HPM_P2
2022/09/20 00:00:44;;;;;;;1.57;1.47;;;9.90;99.90;;;;;;5030514;28;20229;-84
2022/09/20 00:03:11;;;;;;;1.33;1.23;;;9.80;99.90;;;;;;5030710;28;20241;-82
2022/09/20 00:05:39;;;;;;;4.20;1.60;;;9.80;99.90;;;;;;5029657;28;20263;-84
2022/09/20 00:08:06;;;;;;;1.60;1.50;;;9.70;99.90;;;;;;5030737;28;20170;-83
2022/09/20 00:10:36;;;;;;;1.40;1.30;;;9.60;99.90;;;;;;5030628;28;20670;-83
2022/09/20 00:13:03;;;;;;;1.13;1.13;;;9.70;99.90;;;;;;5030324;28;20240;-84
2022/09/20 00:15:29;;;;;;;1.00;1.00;;;9.80;99.90;;;;;;5030330;28;20176;-83
2022/09/20 00:17:55;;;;;;;1.37;1.20;;;9.90;99.90;;;;;;5028884;28;20570;-83
2022/09/20 00:20:21;;;;;;;1.97;1.30;;;9.90;99.90;;;;;;5030306;28;20251;-84
2022/09/20 00:22:49;;;;;;;1.67;0.97;;;9.90;99.90;;;;;;5030420;28;20205;-84
2022/09/20 00:25:16;;;;;;;1.43;1.30;;;9.90;99.90;;;;;;5029864;28;20165;-83
2022/09/20 00:27:42;;;;;;;1.40;1.30;;;9.90;99.90;;;;;;5030282;28;20175;-83
2022/09/20 00:30:08;;;;;;;1.17;1.17;;;9.80;99.90;;;;;;5030348;28;20174;-83
2022/09/20 00:32:34;;;;;;;1.10;1.10;;;9.80;99.90;;;;;;5029088;28;20574;-84
2022/09/20 00:35:06;;;;;;;1.10;1.10;;;9.80;99.90;;;;;;5028813;28;20208;-84
2022/09/20 00:37:42;;;;;;;1.80;0.97;;;9.70;99.90;;;;;;5030222;28;20188;-84
2022/09/20 00:40:19;;;;;;;1.00;1.00;;;9.70;99.90;;;;;;5030244;28;20559;-84
2022/09/20 00:42:46;;;;;;;0.90;0.90;;;9.80;99.90;;;;;;5035500;28;20162;-84
2022/09/20 00:45:29;;;;;;;0.90;0.90;;;9.90;99.90;;;;;;5055110;28;20231;-84
2022/09/20 00:48:12;;;;;;;3.40;1.20;;;10.00;99.90;;;;;;5043651;28;20190;-87
2022/09/20 00:50:48;;;;;;;1.50;1.07;;;10.10;99.90;;;;;;5030430;28;20217;-86
2022/09/20 00:53:27;;;;;;;1.00;1.00;;;10.10;99.90;;;;;;5030019;28;20174;-87
2022/09/20 00:55:57;;;;;;;1.07;0.90;;;10.00;99.90;;;;;;5030111;28;20637;-84
2022/09/20 00:58:26;;;;;;;1.03;1.03;;;9.90;99.90;;;;;;5029849;28;20224;-83
2022/09/20 01:00:55;;;;;;;0.90;0.90;;;9.90;99.90;;;;;;5037180;28;20172;-84
2022/09/20 01:03:24;;;;;;;1.00;1.00;;;9.90;99.90;;;;;;5035455;28;20179;-84
2022/09/20 01:05:53;;;;;;;0.90;0.90;;;10.00;99.90;;;;;;5029898;28;20575;-84
2022/09/20 01:08:23;;;;;;;0.80;0.80;;;10.00;99.90;;;;;;5028365;28;20185;-84
2022/09/20 01:10:49;;;;;;;1.10;1.10;;;10.10;99.90;;;;;;5029763;28;20169;-83
2022/09/20 01:13:15;;;;;;;1.13;1.00;;;10.30;99.90;;;;;;5030167;28;20210;-84
2022/09/20 01:15:43;;;;;;;1.50;1.10;;;10.40;99.90;;;;;;5029715;28;20217;-84
2022/09/20 01:18:09;;;;;;;1.00;1.00;;;10.30;99.90;;;;;;5029779;28;20540;-84
2022/09/20 01:20:41;;;;;;;1.07;1.07;;;10.20;99.70;;;;;;5029742;28;20175;-84
2022/09/20 01:23:31;;;;;;;0.90;0.90;;;10.20;99.70;;;;;;5028535;28;20183;-85
2022/09/20 01:26:18;;;;;;;0.80;0.80;;;10.20;99.30;;;;;;5029837;28;20522;-84
2022/09/20 01:28:47;;;;;;;0.83;0.83;;;10.20;99.20;;;;;;5029642;28;20348;-84
2022/09/20 01:31:30;;;;;;;1.30;0.90;;;10.30;99.60;;;;;;5029856;28;20531;-84
2022/09/20 01:34:06;;;;;;;1.20;1.20;;;10.30;99.90;;;;;;5029743;28;20163;-84
2022/09/20 01:36:48;;;;;;;1.40;1.30;;;10.30;99.90;;;;;;5030965;28;20203;-83
2022/09/20 01:39:26;;;;;;;1.20;1.20;;;10.30;99.90;;;;;;5031967;28;20215;-84
2022/09/20 01:42:04;;;;;;;1.50;1.40;;;10.20;99.90;;;;;;5033447;28;20174;-84
2022/09/20 01:44:45;;;;;;;1.60;1.57;;;10.20;99.90;;;;;;5033222;28;20220;-84
2022/09/20 01:47:25;;;;;;;1.80;1.70;;;10.30;99.90;;;;;;5033304;28;20161;-84
2022/09/20 01:50:13;;;;;;;1.40;1.40;;;10.30;99.90;;;;;;5033475;28;20231;-82
2022/09/20 01:52:47;;;;;;;1.70;1.60;;;10.40;99.90;;;;;;5033518;28;20239;-83
2022/09/20 01:55:31;;;;;;;1.70;1.47;;;10.30;99.90;;;;;;5033303;28;20180;-84
2022/09/20 01:58:39;;;;;;;1.77;1.20;;;10.20;99.90;;;;;;5033281;28;20199;-83
2022/09/20 02:01:22;;;;;;;2.37;1.43;;;10.10;99.90;;;;;;5033109;28;20703;-83
2022/09/20 02:04:26;;;;;;;1.40;1.30;;;10.20;99.90;;;;;;5033111;28;20189;-82
2022/09/20 02:06:55;;;;;;;1.53;1.30;;;10.20;99.90;;;;;;5033087;28;20175;-82
2022/09/20 02:10:07;;;;;;;1.10;1.10;;;10.20;99.90;;;;;;5031350;28;20181;-82
2022/09/20 02:12:51;;;;;;;1.20;1.20;;;10.20;99.90;;;;;;5032718;28;20178;-84
2022/09/20 02:15:32;;;;;;;2.70;1.13;;;10.30;99.90;;;;;;5032818;28;20567;-84
2022/09/20 02:18:16;;;;;;;1.60;1.50;;;10.30;99.90;;;;;;5040602;28;20203;-83
2022/09/20 02:20:51;;;;;;;1.20;1.20;;;10.20;99.90;;;;;;5056157;28;20478;-81
2022/09/20 02:23:35;;;;;;;1.80;1.10;;;10.20;99.90;;;;;;5040864;28;20158;-83
2022/09/20 02:26:01;;;;;;;1.20;1.20;;;10.10;99.90;;;;;;5031308;28;20188;-83
2022/09/20 02:29:01;;;;;;;1.03;1.03;;;10.20;99.90;;;;;;5032431;28;20253;-84
2022/09/20 02:31:43;;;;;;;1.20;1.10;;;10.20;99.90;;;;;;5032592;28;20179;-84
2022/09/20 02:34:23;;;;;;;1.43;1.30;;;10.10;99.90;;;;;;5032436;28;20161;-83
2022/09/20 02:37:06;;;;;;;1.10;1.10;;;10.10;99.90;;;;;;5032533;28;20535;-82
2022/09/20 02:40:01;;;;;;;2.03;1.43;;;10.10;99.90;;;;;;5032288;28;20251;-83
2022/09/20 02:42:54;;;;;;;1.90;1.20;;;9.90;99.90;;;;;;5024904;28;20267;-82
2022/09/20 02:45:43;;;;;;;1.30;1.20;;;9.80;99.90;;;;;;5041821;28;20238;-84
2022/09/20 02:48:09;;;;;;;1.27;1.20;;;9.90;99.90;;;;;;5032680;28;20482;-84
2022/09/20 02:50:51;;;;;;;1.10;1.10;;;9.80;99.90;;;;;;5043139;28;20178;-83
2022/09/20 02:53:24;;;;;;;1.23;1.10;;;9.90;99.90;;;;;;5038323;28;20170;-85
2022/09/20 02:56:06;;;;;;;1.10;1.10;;;9.90;99.90;;;;;;5032261;28;20173;-83
2022/09/20 02:58:52;;;;;;;1.27;1.20;;;9.90;99.90;;;;;;5031794;28;20227;-83
2022/09/20 03:01:23;;;;;;;1.20;1.10;;;10.00;99.90;;;;;;5031791;28;20624;-83
2022/09/20 03:04:32;;;;;;;1.10;1.10;;;10.00;99.90;;;;;;5032051;28;20189;-83
2022/09/20 03:07:22;;;;;;;1.10;1.10;;;10.10;99.90;;;;;;5031641;28;20184;-84
2022/09/20 03:10:09;;;;;;;2.87;1.50;;;10.20;99.90;;;;;;5031847;28;20169;-84
2022/09/20 03:12:42;;;;;;;1.10;1.10;;;10.20;99.90;;;;;;5031435;28;20193;-85
2022/09/20 03:15:32;;;;;;;2.50;1.50;;;10.10;99.90;;;;;;5031820;28;20203;-86
2022/09/20 03:18:18;;;;;;;1.30;1.20;;;10.00;99.90;;;;;;5031551;28;20216;-84
2022/09/20 03:21:16;;;;;;;1.10;1.10;;;9.90;99.90;;;;;;5031604;28;20185;-86
2022/09/20 03:24:06;;;;;;;1.60;1.50;;;9.90;99.90;;;;;;5028290;28;20193;-86
2022/09/20 03:26:53;;;;;;;1.50;1.40;;;9.90;99.90;;;;;;5031713;28;20257;-84
2022/09/20 03:29:58;;;;;;;1.50;1.40;;;9.90;99.90;;;;;;5031339;28;20252;-85
2022/09/20 03:32:45;;;;;;;1.23;1.13;;;9.80;99.90;;;;;;5031276;28;20161;-86
2022/09/20 03:35:45;;;;;;;1.20;1.20;;;9.80;99.90;;;;;;5031299;28;20211;-84
2022/09/20 03:38:38;;;;;;;2.80;1.23;;;9.70;99.90;;;;;;5031107;28;20202;-84
2022/09/20 03:41:15;;;;;;;1.00;1.00;;;9.70;99.90;;;;;;5031661;28;20164;-84
2022/09/20 03:44:06;;;;;;;1.30;1.30;;;9.70;99.90;;;;;;5030959;28;20223;-85
2022/09/20 03:46:45;;;;;;;2.30;1.10;;;9.70;99.90;;;;;;5030959;28;20173;-86
2022/09/20 03:49:49;;;;;;;1.47;1.30;;;9.80;99.90;;;;;;5031026;28;20172;-84
2022/09/20 03:52:35;;;;;;;2.30;1.20;;;9.90;99.90;;;;;;5034876;28;20161;-86
2022/09/20 03:55:07;;;;;;;1.30;1.20;;;10.00;99.90;;;;;;5053443;28;20196;-85
2022/09/20 03:58:09;;;;;;;1.60;1.50;;;9.90;99.90;;;;;;5040846;28;20180;-84
2022/09/20 04:00:54;;;;;;;1.20;1.07;;;9.70;99.90;;;;;;5031793;28;20169;-86
2022/09/20 04:03:48;;;;;;;1.53;1.13;;;9.80;99.90;;;;;;5030638;28;20504;-85
2022/09/20 04:06:37;;;;;;;1.70;1.47;;;9.90;99.90;;;;;;5030989;28;20167;-86
2022/09/20 04:09:47;;;;;;;2.53;1.33;;;10.00;99.90;;;;;;5030641;28;20209;-86
2022/09/20 04:12:18;;;;;;;1.67;1.10;;;10.00;99.90;;;;;;5019818;28;20230;-86
2022/09/20 04:15:18;;;;;;;1.53;1.30;;;10.00;99.90;;;;;;5030211;28;20640;-86
2022/09/20 04:18:08;;;;;;;1.07;0.90;;;10.00;99.90;;;;;;5030086;28;20207;-84
2022/09/20 04:20:43;;;;;;;1.17;1.00;;;10.00;99.90;;;;;;5028978;28;20224;-83
2022/09/20 04:23:28;;;;;;;2.00;1.83;;;10.20;99.90;;;;;;5029173;28;20172;-84
2022/09/20 04:25:54;;;;;;;1.37;1.23;;;10.20;99.90;;;;;;5032075;28;20248;-83
2022/09/20 04:28:52;;;;;;;3.20;1.63;;;10.20;99.90;;;;;;5036515;28;20170;-85
2022/09/20 04:31:34;;;;;;;2.93;2.00;;;10.10;99.90;;;;;;5030442;28;20177;-87
2022/09/20 04:34:03;;;;;;;2.30;2.10;;;10.20;99.90;;;;;;5028764;28;20211;-86
2022/09/20 04:36:55;;;;;;;2.20;1.90;;;10.20;99.90;;;;;;5034881;28;20177;-86
2022/09/20 04:39:50;;;;;;;5.70;2.13;;;10.10;99.90;;;;;;5032194;28;20322;-85
2022/09/20 04:42:37;;;;;;;3.77;2.20;;;10.10;99.90;;;;;;5030076;28;20642;-86
2022/09/20 04:45:33;;;;;;;3.43;2.10;;;10.00;99.90;;;;;;5029694;28;20236;-85
2022/09/20 04:48:18;;;;;;;2.60;2.40;;;10.00;99.90;;;;;;5034170;28;20230;-86
2022/09/20 04:51:03;;;;;;;2.83;2.47;;;9.90;99.90;;;;;;5030177;28;20633;-86
2022/09/20 04:53:43;;;;;;;4.13;3.00;;;9.90;99.90;;;;;;5030028;28;20168;-86
2022/09/20 04:56:21;;;;;;;2.93;2.73;;;9.90;99.90;;;;;;5030433;28;20214;-86
2022/09/20 04:58:56;;;;;;;3.83;2.60;;;9.90;99.90;;;;;;5030274;28;20195;-86
2022/09/20 05:01:53;;;;;;;4.30;2.80;;;9.80;99.90;;;;;;5029838;28;20163;-86
2022/09/20 05:04:56;;;;;;;4.10;2.80;;;9.80;99.90;;;;;;5029831;28;20248;-86
2022/09/20 05:07:54;;;;;;;3.37;2.97;;;9.80;99.90;;;;;;5029823;28;20172;-85
2022/09/20 05:10:35;;;;;;;3.00;2.70;;;9.80;99.90;;;;;;5030670;28;20181;-86
2022/09/20 05:13:26;;;;;;;3.00;2.60;;;9.80;99.90;;;;;;5033922;28;20275;-85
2022/09/20 05:16:16;;;;;;;4.60;2.70;;;9.80;99.90;;;;;;5032352;28;20591;-86
2022/09/20 05:19:22;;;;;;;3.20;2.50;;;9.80;99.90;;;;;;5036767;28;20279;-86
2022/09/20 05:22:30;;;;;;;7.27;3.07;;;9.80;99.90;;;;;;4993813;28;20782;-83
2022/09/20 05:25:14;;;;;;;3.37;2.93;;;9.90;99.90;;;;;;4935368;29;20192;-83
2022/09/20 05:27:52;;;;;;;4.20;2.80;;;9.90;99.90;;;;;;4970473;28;20192;-85
2022/09/20 05:30:54;;;;;;;4.07;2.80;;;10.00;99.90;;;;;;4997483;28;20189;-84
2022/09/20 05:33:37;;;;;;;7.37;2.93;;;10.00;99.90;;;;;;4981165;28;20195;-85
2022/09/20 05:36:15;;;;;;;3.20;3.00;;;10.00;99.90;;;;;;4972278;28;20185;-85
2022/09/20 05:38:53;;;;;;;3.53;2.80;;;10.10;99.90;;;;;;4972224;28;20200;-84
2022/09/20 05:41:39;;;;;;;3.80;2.80;;;10.20;99.90;;;;;;4972142;28;20321;-84
2022/09/20 05:44:19;;;;;;;2.07;1.97;;;10.20;99.90;;;;;;4971803;28;20217;-85
2022/09/20 05:47:17;;;;;;;3.90;2.00;;;10.20;99.90;;;;;;4972237;28;20594;-85
2022/09/20 05:50:07;;;;;;;2.57;1.80;;;10.20;99.90;;;;;;4972072;28;20179;-84
2022/09/20 05:52:43;;;;;;;1.87;1.70;;;10.20;99.90;;;;;;4972069;28;20595;-85
2022/09/20 05:55:29;;;;;;;1.83;1.73;;;10.30;99.90;;;;;;4971993;28;20180;-85
2022/09/20 05:58:02;;;;;;;1.70;1.60;;;10.40;99.90;;;;;;4987952;28;20202;-84
2022/09/20 06:00:58;;;;;;;3.77;2.60;;;10.40;99.90;;;;;;5004859;28;20204;-85
2022/09/20 06:03:43;;;;;;;3.33;1.90;;;10.30;99.90;;;;;;5033253;28;20286;-84
2022/09/20 06:06:21;;;;;;;3.63;1.77;;;10.40;99.90;;;;;;5033493;28;20179;-84
2022/09/20 06:09:05;;;;;;;2.37;1.63;;;10.50;99.90;;;;;;5033164;28;20183;-84
2022/09/20 06:11:58;;;;;;;3.10;1.43;;;10.40;99.90;;;;;;5035852;28;20189;-86
2022/09/20 06:15:00;;;;;;;1.97;1.40;;;10.40;99.90;;;;;;5032993;28;20159;-85
2022/09/20 06:17:35;;;;;;;4.20;1.40;;;10.50;99.90;;;;;;5032843;28;20161;-85
2022/09/20 06:20:18;;;;;;;2.50;1.80;;;10.40;99.90;;;;;;5032886;28;20196;-85
2022/09/20 06:22:48;;;;;;;4.27;1.57;;;10.30;99.90;;;;;;5031906;28;20557;-85
2022/09/20 06:25:30;;;;;;;4.67;1.63;;;10.30;99.90;;;;;;5032759;28;20653;-84
2022/09/20 06:28:24;;;;;;;1.50;1.40;;;10.30;99.90;;;;;;5032449;28;20183;-85
2022/09/20 06:30:56;;;;;;;4.27;1.87;;;10.30;99.90;;;;;;5032189;28;20566;-83
2022/09/20 06:33:27;;;;;;;3.60;1.63;;;10.30;99.90;;;;;;5031292;28;20173;-83
2022/09/20 06:35:55;;;;;;;5.07;1.90;;;10.40;99.90;;;;;;5032551;28;20264;-85
2022/09/20 06:41:29;;;;;;;4.37;1.73;;;10.50;99.90;;;;;;5032576;28;20179;-85
2022/09/20 06:44:00;;;;;;;2.47;2.00;;;10.60;99.90;;;;;;5032223;28;20645;-85
2022/09/20 06:46:33;;;;;;;2.37;1.70;;;10.60;99.90;;;;;;5032528;28;20165;-84
2022/09/20 06:48:59;;;;;;;2.17;1.60;;;10.70;99.90;;;;;;5032109;28;20186;-85
2022/09/20 06:51:27;;;;;;;1.63;1.40;;;10.90;99.90;;;;;;5032407;28;20249;-85
2022/09/20 06:53:55;;;;;;;3.00;1.60;;;11.00;99.90;;;;;;5032230;28;20176;-85
2022/09/20 06:56:25;;;;;;;3.43;1.50;;;11.20;99.90;;;;;;5032527;28;20260;-85
2022/09/20 06:58:52;;;;;;;2.47;1.63;;;11.30;99.90;;;;;;5032343;28;20199;-85
2022/09/20 07:01:19;;;;;;;5.23;1.60;;;11.50;99.90;;;;;;5033665;28;20187;-85
2022/09/20 07:03:45;;;;;;;1.53;1.43;;;11.50;99.90;;;;;;5056778;28;20200;-83
2022/09/20 07:06:11;;;;;;;2.07;1.40;;;11.40;99.90;;;;;;5053721;28;20182;-85
2022/09/20 07:08:37;;;;;;;3.17;1.57;;;11.50;99.90;;;;;;5033616;28;20211;-85
2022/09/20 07:11:09;;;;;;;3.57;1.60;;;11.50;99.90;;;;;;5033203;28;20571;-84
2022/09/20 07:13:35;;;;;;;2.40;1.60;;;11.60;99.90;;;;;;5033547;28;20233;-85
2022/09/20 07:16:07;;;;;;;1.77;1.67;;;11.70;99.90;;;;;;5033915;28;20184;-86
2022/09/20 07:18:33;;;;;;;4.00;1.47;;;11.70;99.90;;;;;;5030899;28;20717;-85
2022/09/20 07:21:05;;;;;;;2.00;1.20;;;11.60;99.90;;;;;;5031832;28;20205;-85
2022/09/20 07:23:31;;;;;;;55.60;6.90;;;11.60;99.90;;;;;;5033928;28;20180;-84
2022/09/20 07:25:58;;;;;;;2.30;1.47;;;11.60;99.90;;;;;;5032110;28;20326;-85
2022/09/20 07:28:24;;;;;;;2.10;1.40;;;11.50;99.90;;;;;;5037648;28;20227;-85
2022/09/20 07:30:51;;;;;;;6.47;1.43;;;11.60;99.90;;;;;;5035536;28;20182;-85
2022/09/20 07:33:20;;;;;;;1.50;1.40;;;11.60;99.90;;;;;;5030072;28;20184;-85
2022/09/20 07:35:49;;;;;;;1.33;1.30;;;11.60;99.90;;;;;;5031632;28;20172;-84
2022/09/20 07:38:15;;;;;;;3.50;1.47;;;11.70;99.90;;;;;;5034828;28;20242;-86
2022/09/20 07:40:42;;;;;;;5.17;1.63;;;11.80;99.90;;;;;;5032350;28;20519;-85
2022/09/20 07:43:08;;;;;;;2.00;1.90;;;11.90;99.90;;;;;;5031183;28;20187;-85
2022/09/20 07:45:37;;;;;;;1.40;1.23;;;12.10;99.90;;;;;;5033870;28;20729;-85
2022/09/20 07:48:04;;;;;;;2.27;1.40;;;12.20;99.90;;;;;;5035386;28;20271;-85
2022/09/20 07:50:31;;;;;;;1.50;1.40;;;12.20;99.80;;;;;;5031858;28;20525;-85
2022/09/20 07:52:57;;;;;;;2.10;1.40;;;12.30;99.80;;;;;;5032647;28;20205;-85
2022/09/20 07:55:23;;;;;;;4.13;1.33;;;12.30;99.60;;;;;;5038163;28;20660;-85
2022/09/20 07:57:50;;;;;;;1.40;1.30;;;12.30;99.70;;;;;;5040258;28;20180;-85
2022/09/20 08:00:16;;;;;;;1.53;1.30;;;12.50;99.80;;;;;;5032389;28;20331;-85
2022/09/20 08:02:44;;;;;;;6.77;1.37;;;12.50;99.90;;;;;;5031621;28;20523;-85
2022/09/20 08:05:10;;;;;;;1.80;1.47;;;12.50;99.90;;;;;;5035669;28;20224;-85
2022/09/20 08:07:37;;;;;;;3.20;1.10;;;12.60;99.60;;;;;;5031680;28;20175;-86
2022/09/20 08:10:04;;;;;;;1.30;1.20;;;12.50;99.20;;;;;;5031648;28;20191;-85
2022/09/20 08:12:31;;;;;;;1.13;1.03;;;12.60;99.10;;;;;;5030783;28;20177;-85
2022/09/20 08:14:58;;;;;;;1.83;1.07;;;12.60;99.40;;;;;;5029300;28;20188;-83
2022/09/20 08:17:23;;;;;;;1.60;1.00;;;12.60;99.50;;;;;;5031166;28;20186;-85
2022/09/20 08:19:51;;;;;;;4.13;1.20;;;12.60;99.30;;;;;;5033402;28;20208;-85
2022/09/20 08:22:18;;;;;;;2.27;1.40;;;12.50;99.20;;;;;;5030713;28;20173;-83
2022/09/20 08:24:44;;;;;;;3.03;1.23;;;12.50;98.90;;;;;;5031738;28;20206;-84
2022/09/20 08:27:09;;;;;;;6.87;1.37;;;12.70;98.40;;;;;;5030936;28;20201;-83
2022/09/20 08:29:35;;;;;;;0.70;0.70;;;12.90;98.60;;;;;;5031800;28;20178;-83
2022/09/20 08:32:02;;;;;;;0.80;0.77;;;13.00;98.30;;;;;;5032003;28;20164;-85
2022/09/20 08:34:28;;;;;;;1.87;0.70;;;13.10;97.80;;;;;;5033085;28;20220;-85
2022/09/20 08:36:55;;;;;;;1.23;1.10;;;13.20;97.40;;;;;;5033272;28;20575;-85
2022/09/20 08:39:21;;;;;;;0.80;0.80;;;13.20;97.70;;;;;;5054771;28;20624;-83
2022/09/20 08:42:01;;;;;;;1.10;1.10;;;13.40;97.50;;;;;;5049644;28;20189;-85
2022/09/20 08:44:42;;;;;;;0.60;0.60;;;;;;;;;;5031391;28;20228;-84
2022/09/20 08:47:34;;;;;;;0.50;0.50;;;13.60;96.70;;;;;;5031146;28;20169;-85
2022/09/20 08:50:04;;;;;;;1.00;0.90;;;13.70;96.70;;;;;;5016643;28;20246;-86
2022/09/20 08:52:39;;;;;;;1.00;0.90;;;13.70;97.40;;;;;;5030490;28;20268;-85
2022/09/20 08:55:39;;;;;;;0.50;0.50;;;13.90;97.20;;;;;;5032264;28;20583;-86
2022/09/20 08:58:04;;;;;;;9.93;2.10;;;14.00;96.70;;;;;;5029943;28;20204;-85
2022/09/20 09:00:35;;;;;;;3.07;1.10;;;13.90;96.20;;;;;;5030766;28;20180;-85
2022/09/20 09:03:05;;;;;;;0.60;0.60;;;14.00;96.30;;;;;;5031713;28;20694;-83
2022/09/20 09:05:39;;;;;;;1.20;1.07;;;14.00;96.00;;;;;;5032333;28;20207;-84
2022/09/20 09:08:17;;;;;;;0.40;0.40;;;14.00;95.30;;;;;;5031896;28;20586;-84
2022/09/20 09:10:56;;;;;;;1.60;0.53;;;14.00;95.00;;;;;;5031711;28;20691;-85
2022/09/20 09:13:34;;;;;;;0.43;0.43;;;14.00;94.80;;;;;;5030263;28;20590;-85
2022/09/20 09:16:06;;;;;;;0.57;0.50;;;14.10;94.80;;;;;;5029985;28;20164;-85
2022/09/20 09:18:37;;;;;;;0.40;0.40;;;14.20;94.60;;;;;;5032933;28;20545;-85
2022/09/20 09:21:06;;;;;;;0.40;0.40;;;14.30;93.90;;;;;;5030383;28;20247;-86
2022/09/20 09:23:43;;;;;;;0.53;0.30;;;14.40;94.00;;;;;;5028871;28;20224;-86
2022/09/20 09:26:22;;;;;;;0.40;0.40;;;14.50;93.50;;;;;;5029976;28;20524;-85
2022/09/20 09:29:06;;;;;;;2.07;0.40;;;14.50;93.40;;;;;;5030153;28;20164;-85
2022/09/20 09:31:33;;;;;;;0.30;0.30;;;14.60;93.40;;;;;;5029215;28;20173;-86
2022/09/20 09:33:58;;;;;;;1.50;0.27;;;14.60;92.40;;;;;;5030067;28;20168;-85
2022/09/20 09:36:25;;;;;;;3.53;0.70;;;14.60;92.30;;;;;;5030263;28;20644;-85
2022/09/20 09:39:15;;;;;;;0.50;0.50;;;14.50;92.10;;;;;;5033081;28;20204;-85
2022/09/20 09:41:42;;;;;;;0.77;0.27;;;14.40;91.80;;;;;;5037199;28;20181;-85
2022/09/20 09:44:24;;;;;;;0.13;0.13;;;14.50;91.80;;;;;;5029993;28;20251;-84
2022/09/20 09:46:52;;;;;;;0.57;0.20;;;14.50;91.90;;;;;;5030193;28;20219;-86
2022/09/20 09:49:32;;;;;;;1.20;0.20;;;14.50;91.80;;;;;;5029783;28;20254;-85
2022/09/20 09:52:11;;;;;;;1.30;0.30;;;14.40;91.90;;;;;;5029732;28;20168;-85
2022/09/20 09:54:43;;;;;;;1.43;0.60;;;14.30;91.90;;;;;;5039419;28;20231;-86
2022/09/20 09:57:36;;;;;;;0.20;0.20;;;14.30;91.80;;;;;;5039136;28;20161;-84
2022/09/20 10:00:12;;;;;;;0.30;0.30;;;14.40;91.80;;;;;;5039111;28;20176;-87
2022/09/20 10:02:57;;;;;;;0.33;0.33;;;14.50;92.00;;;;;;5036777;28;20176;-85
2022/09/20 10:05:32;;;;;;;0.40;0.40;;;14.60;91.90;;;;;;5035505;28;20169;-86
2022/09/20 10:08:42;;;;;;;0.30;0.30;;;14.70;91.30;;;;;;5033887;28;20270;-85
2022/09/20 10:11:11;;;;;;;3.20;0.27;;;14.70;90.30;;;;;;5010214;28;20274;-84
2022/09/20 10:13:43;;;;;;;0.30;0.30;;;14.70;90.40;;;;;;5034844;28;20721;-83
2022/09/20 10:16:35;;;;;;;0.20;0.20;;;14.60;90.00;;;;;;5055842;28;20210;-83
2022/09/20 10:19:27;;;;;;;0.50;0.50;;;14.70;90.00;;;;;;5026248;28;20227;-84
2022/09/20 10:22:01;;;;;;;0.20;0.20;;;14.70;90.30;;;;;;5031960;28;20252;-85
2022/09/20 10:24:38;;;;;;;0.40;0.40;;;14.80;90.50;;;;;;5033268;28;20620;-85
2022/09/20 10:27:38;;;;;;;1.20;0.43;;;14.80;90.40;;;;;;5032923;28;20160;-86
2022/09/20 10:30:13;;;;;;;0.40;0.40;;;14.80;90.40;;;;;;5029817;28;20197;-84
2022/09/20 10:32:48;;;;;;;1.87;0.33;;;15.00;90.50;;;;;;5038528;28;20160;-85
2022/09/20 10:35:34;;;;;;;0.40;0.40;;;14.90;90.60;;;;;;5034354;28;20179;-86
2022/09/20 10:38:13;;;;;;;0.23;0.23;;;15.00;90.60;;;;;;5032984;28;20647;-85
2022/09/20 10:43:41;;;;;;;0.17;0.17;;;15.20;90.60;;;;;;5033401;28;20608;-85
2022/09/20 10:46:38;;;;;;;0.20;0.20;;;15.20;90.70;;;;;;5033168;28;20219;-85
2022/09/20 10:49:27;;;;;;;0.20;0.20;;;15.40;90.80;;;;;;5035132;28;20199;-85
2022/09/20 10:52:17;;;;;;;0.67;0.23;;;15.70;90.50;;;;;;5039468;28;20181;-86
2022/09/20 10:55:03;;;;;;;0.30;0.23;;;15.80;90.20;;;;;;5032658;28;20184;-85
2022/09/20 10:57:50;;;;;;;0.27;0.27;;;16.00;88.50;;;;;;5032404;28;20235;-85
2022/09/20 11:00:44;;;;;;;0.10;0.10;;;16.10;88.10;;;;;;5031897;28;20261;-84
2022/09/20 11:03:18;;;;;;;0.30;0.30;;;16.20;86.80;;;;;;5035160;28;20157;-85
2022/09/20 11:06:21;;;;;;;0.50;0.50;;;16.40;87.30;;;;;;5032862;28;20552;-85
2022/09/20 11:08:53;;;;;;;0.37;0.37;;;16.40;85.40;;;;;;5031864;28;20616;-86
2022/09/20 11:11:24;;;;;;;0.40;0.40;;;16.50;85.90;;;;;;5034133;28;20172;-85
2022/09/20 11:14:08;;;;;;;0.30;0.30;;;16.20;86.30;;;;;;5034713;28;20248;-85
2022/09/20 11:16:54;;;;;;;1.50;0.30;;;16.10;86.50;;;;;;5036669;28;20286;-86
2022/09/20 11:19:41;;;;;;;0.30;0.30;;;16.10;87.40;;;;;;5034941;28;20244;-85
2022/09/20 11:22:17;;;;;;;0.50;0.50;;;16.10;86.80;;;;;;5033232;28;20178;-86
2022/09/20 11:25:07;;;;;;;0.43;0.43;;;15.90;87.10;;;;;;5040084;28;20165;-86
2022/09/20 11:27:43;;;;;;;0.87;0.40;;;15.80;85.90;;;;;;5040080;28;20606;-86
2022/09/20 11:30:20;;;;;;;0.37;0.37;;;15.80;86.10;;;;;;5031849;28;20197;-85
2022/09/20 11:33:12;;;;;;;0.53;0.40;;;15.90;84.20;;;;;;5032431;28;20259;-86
2022/09/20 11:35:41;;;;;;;0.27;0.27;;;16.00;83.70;;;;;;5033424;28;20177;-85
2022/09/20 11:38:20;;;;;;;0.83;0.20;;;16.00;83.90;;;;;;5032451;28;20683;-86
2022/09/20 11:40:54;;;;;;;0.73;0.40;;;16.00;83.80;;;;;;5037069;28;20177;-83
2022/09/20 11:43:21;;;;;;;0.40;0.40;;;16.10;84.40;;;;;;5035367;28;20484;-85
2022/09/20 11:45:52;;;;;;;0.60;0.60;;;16.10;83.30;;;;;;5035007;28;20254;-86
2022/09/20 11:48:24;;;;;;;2.43;0.40;;;16.30;83.10;;;;;;5035228;28;20173;-85
2022/09/20 11:50:59;;;;;;;0.40;0.40;;;16.20;82.40;;;;;;5048088;28;20168;-86
2022/09/20 11:53:38;;;;;;;0.50;0.40;;;16.00;81.90;;;;;;5056104;28;20176;-85
2022/09/20 11:56:23;;;;;;;0.50;0.50;;;15.80;82.80;;;;;;5036850;28;20165;-86
2022/09/20 11:58:57;;;;;;;1.63;0.70;;;15.70;84.80;;;;;;5032656;28;20313;-85
2022/09/20 12:01:26;;;;;;;0.40;0.40;;;15.50;89.20;;;;;;5033758;28;20299;-85
2022/09/20 12:03:54;;;;;;;0.40;0.40;;;15.20;89.60;;;;;;5035400;28;20176;-85
2022/09/20 12:06:32;;;;;;;1.23;0.53;;;15.20;90.40;;;;;;5033591;28;20168;-86
2022/09/20 12:09:01;;;;;;;0.50;0.50;;;15.20;89.40;;;;;;5033123;28;20184;-85
2022/09/20 12:11:37;;;;;;;2.43;0.93;;;15.10;87.90;;;;;;5033751;28;20564;-85
2022/09/20 12:14:21;;;;;;;4.77;0.97;;;15.10;86.40;;;;;;5036043;28;20176;-86
2022/09/20 12:16:48;;;;;;;33.90;4.20;;;15.30;87.10;;;;;;5033379;28;20157;-85
2022/09/20 12:19:20;;;;;;;1.07;0.70;;;15.50;86.00;;;;;;5032886;28;20207;-85
2022/09/20 12:21:58;;;;;;;0.83;0.47;;;15.50;85.90;;;;;;5031088;28;20681;-83
2022/09/20 12:24:30;;;;;;;2.67;0.80;;;15.50;86.10;;;;;;5031580;28;20199;-85
2022/09/20 12:26:58;;;;;;;0.73;0.60;;;15.70;85.90;;;;;;5031231;28;20164;-85
2022/09/20 12:29:31;;;;;;;8.83;0.87;;;15.90;86.50;;;;;;5031747;28;20179;-85
2022/09/20 12:32:01;;;;;;;0.40;0.40;;;16.00;85.60;;;;;;5030563;28;20211;-85
2022/09/20 12:34:32;;;;;;;0.80;0.80;;;15.80;85.60;;;;;;5030688;28;20593;-86
2022/09/20 12:36:58;;;;;;;0.87;0.50;;;15.70;85.40;;;;;;5030946;28;20160;-84
2022/09/20 12:39:26;;;;;;;0.60;0.60;;;15.60;86.20;;;;;;5030906;28;20224;-86
2022/09/20 12:42:02;;;;;;;0.60;0.60;;;15.50;86.10;;;;;;5031060;28;20227;-85
2022/09/20 12:44:57;;;;;;;0.73;0.43;;;15.50;86.90;;;;;;5030368;28;20235;-85
2022/09/20 12:47:32;;;;;;;0.50;0.50;;;15.60;86.30;;;;;;5030246;28;20651;-86
2022/09/20 12:52:52;;;;;;;0.63;0.60;;;15.70;86.60;;;;;;5033041;28;20644;-85
2022/09/20 12:55:39;;;;;;;1.40;0.77;;;15.90;85.50;;;;;;5033603;28;20171;-87
2022/09/20 12:58:13;;;;;;;0.50;0.50;;;16.10;85.70;;;;;;5032744;28;20619;-86
2022/09/20 13:00:56;;;;;;;2.23;0.70;;;16.00;85.30;;;;;;5031010;28;20523;-85
2022/09/20 13:03:34;;;;;;;0.87;0.60;;;16.10;86.10;;;;;;5030279;28;20219;-87
2022/09/20 13:06:05;;;;;;;4.80;1.03;;;16.10;85.20;;;;;;5030855;28;20165;-87
2022/09/20 13:08:50;;;;;;;0.70;0.70;;;16.10;86.30;;;;;;5033094;28;20168;-87
2022/09/20 13:11:19;;;;;;;0.63;0.63;;;16.20;86.30;;;;;;5042512;28;20184;-87
2022/09/20 13:13:58;;;;;;;0.33;0.33;;;16.00;86.80;;;;;;5032879;28;20598;-85
2022/09/20 13:16:38;;;;;;;0.60;0.60;;;16.00;85.40;;;;;;5031541;28;20724;-84
2022/09/20 13:19:28;;;;;;;0.37;0.37;;;15.80;84.30;;;;;;5031443;28;20197;-86
2022/09/20 13:22:02;;;;;;;2.73;0.53;;;15.80;85.50;;;;;;5032457;28;20175;-85
2022/09/20 13:24:43;;;;;;;1.60;0.70;;;15.50;86.40;;;;;;5033087;28;20188;-87
2022/09/20 13:27:33;;;;;;;0.77;0.40;;;15.50;86.90;;;;;;5048558;28;20156;-87
2022/09/20 13:30:18;;;;;;;0.60;0.60;;;15.50;86.20;;;;;;5051268;28;20165;-84
2022/09/20 13:32:44;;;;;;;0.20;0.20;;;15.50;85.80;;;;;;5049515;28;20161;-86
2022/09/20 13:35:13;;;;;;;0.50;0.50;;;15.50;86.00;;;;;;5033359;28;20573;-86
2022/09/20 13:37:48;;;;;;;0.43;0.40;;;15.50;85.70;;;;;;5035279;28;20669;-84
2022/09/20 13:40:32;;;;;;;0.37;0.37;;;15.50;85.20;;;;;;5033285;28;20203;-87
2022/09/20 13:43:01;;;;;;;0.63;0.60;;;15.40;85.10;;;;;;5036099;28;20262;-85
2022/09/20 13:45:27;;;;;;;0.40;0.40;;;15.30;85.60;;;;;;5033475;28;20310;-85
2022/09/20 13:47:56;;;;;;;0.53;0.53;;;15.20;85.70;;;;;;5034007;28;20175;-86
2022/09/20 13:50:25;;;;;;;0.40;0.40;;;15.30;86.40;;;;;;5034434;28;20627;-87
2022/09/20 13:52:54;;;;;;;2.07;0.47;;;15.30;85.50;;;;;;5033886;28;20187;-87